createdAt,value
2023-01-26T00:01:56.160Z,102453.78
2023-01-26T00:07:00.003Z,102440.94
2023-01-26T00:12:05.517Z,102436.00
2023-01-26T00:17:09.275Z,102431.28
2023-01-26T00:22:13.079Z,102428.38
2023-01-26T00:27:18.509Z,102418.09
2023-01-26T00:32:22.369Z,102421.12
2023-01-26T00:37:26.164Z,102405.19
2023-01-26T00:42:31.302Z,102397.38
2023-01-26T00:47:35.143Z,102408.06
2023-01-26T00:52:38.937Z,102388.84
2023-01-26T00:57:44.091Z,102391.34
2023-01-26T01:02:47.892Z,102389.69
2023-01-26T01:07:51.684Z,102389.91
2023-01-26T01:12:57.468Z,102377.78
2023-01-26T01:18:01.215Z,102383.38
2023-01-26T01:23:06.416Z,102380.44
2023-01-26T01:28:11.609Z,102379.84
2023-01-26T01:33:15.729Z,102385.91
2023-01-26T01:38:19.515Z,102381.88
2023-01-26T01:43:25.733Z,102391.09
2023-01-26T01:48:32.599Z,102385.13
2023-01-26T01:53:40.483Z,102385.47
2023-01-26T01:58:46.250Z,102375.25
2023-01-26T02:03:53.214Z,102374.22
2023-01-26T02:08:58.795Z,102365.53
2023-01-26T02:14:08.325Z,102361.50
2023-01-26T02:19:18.935Z,102361.69
2023-01-26T02:24:26.702Z,102359.50
2023-01-26T02:29:32.908Z,102352.44
2023-01-26T02:34:36.744Z,102352.78
2023-01-26T02:39:50.716Z,102348.28
2023-01-26T02:44:55.965Z,102347.41
2023-01-26T02:50:00.624Z,102347.91
2023-01-26T02:55:22.067Z,102348.47
2023-01-26T03:00:29.246Z,102348.47
2023-01-26T03:05:33.237Z,102348.50
2023-01-26T03:10:37.588Z,102347.75
2023-01-26T03:15:47.943Z,102343.34
2023-01-26T03:21:09.539Z,102341.72
2023-01-26T03:26:30.960Z,102340.41
2023-01-26T03:31:36.384Z,102338.94
2023-01-26T03:36:40.343Z,102340.22
2023-01-26T03:42:01.907Z,102338.19
2023-01-26T03:47:24.850Z,102340.97
2023-01-26T03:52:46.511Z,102334.91
2023-01-26T03:57:51.339Z,102335.44
2023-01-26T04:03:14.224Z,102333.97
2023-01-26T04:08:24.725Z,102329.41
2023-01-26T04:13:47.504Z,102330.66
2023-01-26T04:19:10.989Z,102329.22
2023-01-26T04:24:17.940Z,102335.22
2023-01-26T04:29:23.962Z,102336.97
2023-01-26T04:34:29.526Z,102335.00
2023-01-26T04:39:34.012Z,102332.41
2023-01-26T04:44:37.824Z,102340.69
2023-01-26T04:49:43.296Z,102339.41
2023-01-26T04:54:48.229Z,102335.22
2023-01-26T04:59:54.605Z,102331.56
2023-01-26T05:04:59.849Z,102332.63
2023-01-26T05:10:04.283Z,102327.38
2023-01-26T05:15:09.622Z,102319.00
2023-01-26T05:20:17.032Z,102313.69
2023-01-26T05:25:22.601Z,102313.88
2023-01-26T05:30:26.495Z,102317.31
2023-01-26T05:35:32.560Z,102320.19
2023-01-26T05:40:36.359Z,102320.38
2023-01-26T05:45:41.020Z,102330.88
2023-01-26T05:50:46.825Z,102340.12
2023-01-26T05:55:51.574Z,102334.16
2023-01-26T06:00:57.120Z,102326.66
2023-01-26T06:06:02.458Z,102331.03
2023-01-26T06:11:07.506Z,102342.13
2023-01-26T06:16:12.188Z,102344.84
2023-01-26T06:21:17.637Z,102349.34
2023-01-26T06:26:21.883Z,102353.53
2023-01-26T06:31:29.482Z,102352.63
2023-01-26T06:36:36.050Z,102357.03
2023-01-26T06:41:40.642Z,102355.16
2023-01-26T06:46:44.629Z,102360.59
2023-01-26T06:51:56.764Z,102365.84
2023-01-26T06:57:02.192Z,102368.38
2023-01-26T07:02:12.543Z,102367.50
2023-01-26T07:07:18.077Z,102366.06
2023-01-26T07:12:21.887Z,102367.16
2023-01-26T07:17:25.748Z,102370.53
2023-01-26T07:22:30.867Z,102375.25
2023-01-26T07:27:34.928Z,102367.94
2023-01-26T07:32:38.787Z,102374.31
2023-01-26T07:37:43.917Z,102373.25
2023-01-26T07:42:47.750Z,102382.37
2023-01-26T07:47:55.766Z,102387.97
2023-01-26T07:53:02.703Z,102390.25
2023-01-26T07:58:06.487Z,102396.75
2023-01-26T08:03:10.302Z,102399.81
2023-01-26T08:08:17.612Z,102408.66
2023-01-26T08:13:34.407Z,102405.72
2023-01-26T08:18:39.144Z,102412.78
2023-01-26T08:23:44.484Z,102417.50
2023-01-26T08:28:49.053Z,102415.84
2023-01-26T08:33:54.419Z,102407.31
2023-01-26T08:38:59.586Z,102416.16
2023-01-26T08:44:03.414Z,102407.81
2023-01-26T08:49:07.174Z,102421.19
2023-01-26T08:54:12.341Z,102418.25
2023-01-26T08:59:16.131Z,102419.84
2023-01-26T09:04:19.921Z,102430.66
2023-01-26T09:09:25.120Z,102426.06
2023-01-26T09:14:29.444Z,102431.84
2023-01-26T09:19:33.577Z,102428.16
2023-01-26T09:24:38.671Z,102434.63
2023-01-26T09:29:42.426Z,102441.31
2023-01-26T09:34:46.404Z,102436.66
2023-01-26T09:39:51.614Z,102437.94
2023-01-26T09:45:03.562Z,102436.44
2023-01-26T09:50:14.588Z,102434.22
2023-01-26T09:55:22.944Z,102432.91
2023-01-26T10:00:31.518Z,102437.91
2023-01-26T10:05:45.925Z,102440.03
2023-01-26T10:10:54.959Z,102439.63
2023-01-26T10:16:02.031Z,102448.09
2023-01-26T10:21:08.831Z,102437.53
2023-01-26T10:26:18.864Z,102444.09
2023-01-26T10:31:25.750Z,102445.44
2023-01-26T10:36:31.894Z,102449.66
2023-01-26T10:41:37.815Z,102448.25
2023-01-26T10:46:43.388Z,102445.88
2023-01-26T10:52:05.785Z,102441.88
2023-01-26T10:57:18.567Z,102445.88
2023-01-26T11:02:27.138Z,102442.12
2023-01-26T11:07:34.953Z,102438.06
2023-01-26T11:12:40.080Z,102446.53
2023-01-26T11:17:50.608Z,102435.97
2023-01-26T11:23:02.321Z,102455.41
2023-01-26T11:28:27.136Z,102450.13
2023-01-26T11:33:41.052Z,102448.44
2023-01-26T11:39:01.632Z,102450.09
2023-01-26T11:44:26.484Z,102449.12
2023-01-26T11:49:55.531Z,102444.56
2023-01-26T11:55:18.372Z,102436.47
2023-01-26T12:00:30.835Z,102427.34
2023-01-26T12:05:43.162Z,102425.56
2023-01-26T12:10:59.187Z,102417.41
2023-01-26T12:16:13.605Z,102415.38
2023-01-26T12:21:19.378Z,102402.50
2023-01-26T12:26:26.120Z,102406.78
2023-01-26T12:31:36.829Z,102400.13
2023-01-26T12:36:49.167Z,102391.63
2023-01-26T12:42:07.334Z,102391.38
2023-01-26T12:47:23.866Z,102393.16
2023-01-26T12:52:33.114Z,102376.47
2023-01-26T12:57:43.575Z,102363.91
2023-01-26T13:02:52.609Z,102363.16
2023-01-26T13:07:56.608Z,102364.94
2023-01-26T13:13:02.091Z,102361.19
2023-01-26T13:18:08.821Z,102361.84
2023-01-26T13:23:42.659Z,102351.81
2023-01-26T13:28:47.513Z,102353.22
2023-01-26T13:33:53.195Z,102346.81
2023-01-26T13:39:01.258Z,102356.41
2023-01-26T13:44:11.269Z,102358.59
2023-01-26T13:49:27.312Z,102357.19
2023-01-26T13:54:31.315Z,102350.81
2023-01-26T13:59:48.872Z,102351.94
2023-01-26T14:04:55.635Z,102350.94
2023-01-26T14:10:02.026Z,102344.38
2023-01-26T14:15:09.546Z,102348.03
2023-01-26T14:20:27.328Z,102349.06
2023-01-26T14:25:31.652Z,102356.31
2023-01-26T14:30:36.870Z,102345.91
2023-01-26T14:35:42.770Z,102350.03
2023-01-26T14:40:47.169Z,102348.87
2023-01-26T14:45:55.638Z,102349.38
2023-01-26T14:51:02.138Z,102354.12
2023-01-26T14:56:06.392Z,102347.97
2023-01-26T15:01:10.270Z,102353.75
2023-01-26T15:06:23.888Z,102353.13
2023-01-26T15:11:47.874Z,102354.63
2023-01-26T15:16:55.101Z,102346.19
2023-01-26T15:22:00.695Z,102343.88
2023-01-26T15:27:08.483Z,102345.41
2023-01-26T15:32:30.430Z,102369.56
2023-01-26T15:37:36.202Z,102359.41
2023-01-26T15:42:40.151Z,102366.72
2023-01-26T15:47:43.957Z,102360.00
2023-01-26T15:52:49.111Z,102372.19
2023-01-26T15:57:52.902Z,102371.06
2023-01-26T16:02:56.778Z,102386.06
2023-01-26T16:08:01.914Z,102381.12
2023-01-26T16:13:09.803Z,102386.59
2023-01-26T16:18:13.866Z,102393.00
2023-01-26T16:23:21.712Z,102393.38
2023-01-26T16:28:25.548Z,102391.19
2023-01-26T16:33:29.411Z,102403.59
2023-01-26T16:38:34.540Z,102392.31
2023-01-26T16:43:41.890Z,102405.75
2023-01-26T16:48:45.665Z,102409.72
2023-01-26T16:53:51.170Z,102413.53
2023-01-26T16:58:55.667Z,102418.56
2023-01-26T17:03:59.838Z,102412.13
2023-01-26T17:09:05.313Z,102407.94
2023-01-26T17:14:11.183Z,102408.97
2023-01-26T17:19:15.022Z,102429.38
2023-01-26T17:24:20.200Z,102414.19
2023-01-26T17:29:23.975Z,102419.56
2023-01-26T17:34:27.768Z,102420.03
2023-01-26T17:39:32.910Z,102415.38
2023-01-26T17:44:36.710Z,102413.59
2023-01-26T17:49:40.792Z,102409.81
2023-01-26T17:54:45.992Z,102415.72
2023-01-26T17:59:49.780Z,102410.59
2023-01-26T18:04:53.566Z,102415.56
2023-01-26T18:09:58.676Z,102410.31
2023-01-26T18:15:02.486Z,102411.97
2023-01-26T18:20:07.155Z,102411.97
2023-01-26T18:25:12.634Z,102402.47
2023-01-26T18:30:16.983Z,102413.37
2023-01-26T18:35:20.764Z,102396.78
2023-01-26T18:40:25.915Z,102399.06
2023-01-26T18:45:29.656Z,102395.19
2023-01-26T18:50:33.421Z,102409.19
2023-01-26T18:55:38.818Z,102401.09
2023-01-26T19:00:42.820Z,102409.81
2023-01-26T19:05:46.869Z,102406.34
2023-01-26T19:10:52.689Z,102407.25
2023-01-26T19:15:56.787Z,102409.69
2023-01-26T19:21:03.085Z,102406.22
2023-01-26T19:26:13.183Z,102406.22
2023-01-26T19:31:19.374Z,102406.97
2023-01-26T19:36:24.592Z,102406.22
2023-01-26T19:41:29.750Z,102415.72
2023-01-26T19:46:33.972Z,102417.38
2023-01-26T19:51:37.906Z,102418.28
2023-01-26T19:56:43.160Z,102417.22
2023-01-26T20:01:47.099Z,102411.19
2023-01-26T20:06:53.225Z,102415.28
2023-01-26T20:11:58.442Z,102409.41
2023-01-26T20:17:02.469Z,102407.59
2023-01-26T20:22:06.423Z,102405.66
2023-01-26T20:27:11.908Z,102409.63
2023-01-26T20:32:15.956Z,102400.38
2023-01-26T20:37:21.505Z,102401.16
2023-01-26T20:42:26.810Z,102407.03
2023-01-26T20:47:33.948Z,102407.66
2023-01-26T20:52:38.534Z,102410.22
2023-01-26T20:57:43.694Z,102405.84
2023-01-26T21:02:47.602Z,102399.06
2023-01-26T21:07:53.423Z,102403.13
2023-01-26T21:12:58.763Z,102398.16
2023-01-26T21:18:02.557Z,102401.50
2023-01-26T21:23:06.288Z,102398.78
2023-01-26T21:28:11.434Z,102388.53
2023-01-26T21:33:15.342Z,102389.78
2023-01-26T21:38:19.130Z,102391.56
2023-01-26T21:43:24.254Z,102391.44
2023-01-26T21:48:35.704Z,102390.41
2023-01-26T21:53:39.470Z,102379.37
2023-01-26T21:59:02.432Z,102381.94
2023-01-26T22:04:08.762Z,102371.56
2023-01-26T22:09:14.466Z,102373.97
2023-01-26T22:14:21.566Z,102372.19
2023-01-26T22:19:26.005Z,102369.47
2023-01-26T22:24:30.039Z,102364.19
2023-01-26T22:29:35.458Z,102369.31
2023-01-26T22:34:39.256Z,102378.56
2023-01-26T22:39:43.223Z,102378.66
2023-01-26T22:44:48.256Z,102366.63
2023-01-26T22:49:52.068Z,102376.56
2023-01-26T22:54:55.811Z,102378.13
2023-01-26T23:00:00.935Z,102377.19
2023-01-26T23:05:05.028Z,102380.38
2023-01-26T23:10:09.930Z,102378.31
2023-01-26T23:15:15.327Z,102386.00
2023-01-26T23:20:19.774Z,102385.69
2023-01-26T23:25:41.175Z,102393.38
2023-01-26T23:30:46.286Z,102391.31
2023-01-26T23:35:50.082Z,102390.38
2023-01-26T23:40:54.269Z,102396.28
2023-01-26T23:45:59.577Z,102384.50
2023-01-26T23:51:05.504Z,102378.19
2023-01-26T23:56:11.499Z,102387.88
